Time;durP1;ratioP1;P1;durP2;ratioP2;P2;SDS_P1;SDS_P2;PMS_P1;PMS_P2;Temp;Humidity;BMP_temperature;BMP_pressure;BME280_temperature;BME280_humidity;BME280_pressure;Samples;Min_cycle;Max_cycle;Signal;HPM_P1;HPM_P2
2021/01/29 00:02:09;;;;;;;36.58;18.45;;;103.20;2227.20;;;;;;5140399;27;20042;-68
2021/01/29 00:04:35;;;;;;;29.40;15.40;;;103.20;2227.20;;;;;;5138597;27;20034;-67
2021/01/29 00:07:01;;;;;;;40.60;22.27;;;103.20;2227.20;;;;;;5145951;27;20055;-68
2021/01/29 00:09:27;;;;;;;34.58;18.63;;;103.30;2227.20;;;;;;5125242;27;20027;-64
2021/01/29 00:11:52;;;;;;;35.55;20.23;;;103.30;2227.20;;;;;;5142464;27;20392;-67
2021/01/29 00:14:18;;;;;;;31.42;16.33;;;103.30;2227.20;;;;;;5143282;27;20022;-66
2021/01/29 00:16:44;;;;;;;46.92;24.42;;;128.00;2252.80;;;;;;5134864;27;20110;-67
2021/01/29 00:19:09;;;;;;;43.13;22.17;;;128.10;2252.80;;;;;;5129464;27;20031;-65
2021/01/29 00:21:35;;;;;;;43.25;18.00;;;128.10;2252.80;;;;;;5139917;27;20039;-64
2021/01/29 00:24:01;;;;;;;61.83;31.10;;;128.10;2252.80;;;;;;5141572;27;20022;-67
2021/01/29 00:26:26;;;;;;;166.93;68.75;;;128.10;2252.80;;;;;;5135883;27;20549;-67
2021/01/29 00:28:52;;;;;;;117.22;53.03;;;128.10;2252.80;;;;;;5131886;27;20514;-68
2021/01/29 00:31:18;;;;;;;173.93;78.30;;;128.20;2252.80;;;;;;5131445;27;20023;-67
2021/01/29 00:33:44;;;;;;;42.53;24.67;;;128.20;2252.80;;;;;;5131654;27;20023;-68
2021/01/29 00:36:09;;;;;;;49.65;25.88;;;128.20;2252.80;;;;;;5131673;27;20050;-67
2021/01/29 00:38:35;;;;;;;54.35;26.30;;;128.20;2252.80;;;;;;5132130;27;20034;-67
2021/01/29 00:41:01;;;;;;;225.07;69.07;;;128.20;2252.80;;;;;;5129725;27;20058;-67
2021/01/29 00:43:26;;;;;;;76.30;37.85;;;128.20;2252.80;;;;;;5106101;27;20027;-68
2021/01/29 00:45:52;;;;;;;44.17;21.88;;;128.20;2252.80;;;;;;5114339;27;20524;-68
2021/01/29 00:48:18;;;;;;;53.35;25.10;;;128.20;2252.80;;;;;;5131419;27;20051;-68
2021/01/29 00:50:44;;;;;;;128.57;57.75;;;128.20;2252.80;;;;;;5131174;27;20023;-67
2021/01/29 00:53:10;;;;;;;173.98;74.20;;;128.10;2252.80;;;;;;5131670;27;20030;-68
2021/01/29 00:55:37;;;;;;;163.65;71.97;;;128.10;2252.80;;;;;;5131212;27;20023;-68
2021/01/29 00:58:03;;;;;;;190.18;78.45;;;128.00;2252.80;;;;;;5131082;27;20026;-68
2021/01/29 01:00:29;;;;;;;174.20;72.20;;;128.00;2252.80;;;;;;5131397;27;20025;-68
2021/01/29 01:02:54;;;;;;;156.38;70.03;;;128.00;2252.80;;;;;;5131402;27;20023;-68
2021/01/29 01:05:23;;;;;;;235.73;101.63;;;103.30;2227.20;;;;;;5128632;27;20060;-67
2021/01/29 01:07:48;;;;;;;98.43;44.97;;;103.20;2227.20;;;;;;5131339;27;20027;-61
2021/01/29 01:10:14;;;;;;;63.20;31.23;;;103.20;2227.20;;;;;;5130872;27;20030;-63
2021/01/29 01:12:40;;;;;;;124.78;56.38;;;103.20;2227.20;;;;;;5128312;27;20068;-67
2021/01/29 01:15:12;;;;;;;73.55;36.92;;;103.20;2227.20;;;;;;5130953;27;20069;-67
2021/01/29 01:17:38;;;;;;;89.78;43.75;;;103.20;2227.20;;;;;;5130870;27;20068;-62
2021/01/29 01:20:07;;;;;;;34.08;18.58;;;103.20;2227.20;;;;;;5131174;27;20019;-68
2021/01/29 01:22:33;;;;;;;193.38;90.97;;;103.30;2227.20;;;;;;5130989;27;20110;-64
2021/01/29 01:24:58;;;;;;;196.48;93.05;;;103.30;2227.20;;;;;;5131025;27;20177;-68
2021/01/29 01:27:24;;;;;;;61.38;31.10;;;103.30;2227.20;;;;;;5130889;27;20019;-68
2021/01/29 01:29:50;;;;;;;66.10;35.15;;;128.00;2252.80;;;;;;5130719;27;20046;-67
2021/01/29 01:32:16;;;;;;;31.30;17.60;;;128.10;2252.80;;;;;;5130807;27;20023;-64
2021/01/29 01:34:41;;;;;;;61.78;28.63;;;128.10;2252.80;;;;;;5130859;27;20372;-68
2021/01/29 01:37:07;;;;;;;85.35;41.47;;;128.10;2252.80;;;;;;5131002;27;20015;-67
2021/01/29 01:39:33;;;;;;;26.05;15.07;;;128.20;2252.80;;;;;;5130824;27;20461;-67
2021/01/29 01:41:59;;;;;;;22.17;13.23;;;128.10;2252.80;;;;;;5131986;27;20480;-68
2021/01/29 01:44:27;;;;;;;22.50;13.35;;;128.10;2252.80;;;;;;5133457;27;20381;-67
2021/01/29 01:46:55;;;;;;;18.67;11.57;;;128.10;2252.80;;;;;;5134231;28;20072;-68
2021/01/29 01:49:24;;;;;;;36.35;18.85;;;128.20;2252.80;;;;;;5133748;27;20019;-68
2021/01/29 01:52:02;;;;;;;72.18;37.63;;;128.20;2252.80;;;;;;5134174;28;20023;-68
2021/01/29 01:55:02;;;;;;;23.52;13.82;;;128.30;2252.80;;;;;;5132461;28;20016;-68
2021/01/29 01:57:29;;;;;;;20.45;12.02;;;128.40;2252.80;;;;;;5132757;28;20376;-68
2021/01/29 02:00:09;;;;;;;18.75;11.40;;;128.40;2252.80;;;;;;5133857;28;20024;-68
2021/01/29 02:02:37;;;;;;;19.48;11.52;;;128.50;2252.80;;;;;;5133777;28;20034;-68
2021/01/29 02:05:10;;;;;;;22.02;12.93;;;128.60;2227.20;;;;;;5133855;28;20060;-68
2021/01/29 02:07:47;;;;;;;29.17;16.55;;;128.70;2227.20;;;;;;5133738;28;20027;-68
2021/01/29 02:10:12;;;;;;;42.75;22.55;;;128.80;2227.20;;;;;;5115297;28;20432;-66
2021/01/29 02:12:38;;;;;;;43.08;23.20;;;128.90;2227.20;;;;;;5133958;28;20019;-68
2021/01/29 02:15:16;;;;;;;30.65;17.95;;;128.90;2227.20;;;;;;5134316;28;20030;-66
2021/01/29 02:18:03;;;;;;;27.58;15.93;;;128.80;2227.20;;;;;;5132205;28;20050;-68
2021/01/29 02:21:00;;;;;;;28.65;16.20;;;128.90;2227.20;;;;;;5133289;28;20205;-66
2021/01/29 02:23:29;;;;;;;26.38;15.02;;;153.60;2227.20;;;;;;5132484;28;20023;-67
2021/01/29 02:26:16;;;;;;;21.95;14.15;;;153.60;2227.20;;;;;;5133715;28;20020;-63
2021/01/29 02:29:19;;;;;;;21.52;13.45;;;153.60;2227.20;;;;;;5131478;28;20039;-64
2021/01/29 02:32:09;;;;;;;24.67;15.27;;;153.60;2227.20;;;;;;5132249;28;20022;-65
2021/01/29 02:35:12;;;;;;;22.60;14.00;;;128.90;2227.20;;;;;;5133035;28;20469;-66
2021/01/29 02:38:02;;;;;;;24.48;15.10;;;128.90;2227.20;;;;;;5113696;28;20016;-68
2021/01/29 02:40:42;;;;;;;25.85;15.68;;;128.90;2227.20;;;;;;5113812;28;20031;-66
2021/01/29 02:43:39;;;;;;;25.42;15.68;;;128.90;2227.20;;;;;;5113908;28;20438;-66
2021/01/29 02:46:24;;;;;;;27.00;16.40;;;153.60;2227.20;;;;;;5129122;28;20051;-67
2021/01/29 02:49:02;;;;;;;33.22;19.98;;;153.60;2227.20;;;;;;5133318;28;20019;-66
2021/01/29 02:51:39;;;;;;;42.17;24.70;;;153.60;2227.20;;;;;;5132684;28;20019;-65
2021/01/29 02:54:12;;;;;;;81.03;41.45;;;153.60;2227.20;;;;;;5132918;28;20533;-68
2021/01/29 02:56:49;;;;;;;85.80;44.72;;;128.90;2227.20;;;;;;5133234;27;20031;-66
2021/01/29 02:59:37;;;;;;;44.63;25.98;;;128.90;2227.20;;;;;;5134599;27;20080;-67
2021/01/29 03:02:15;;;;;;;45.60;26.52;;;128.80;2252.80;;;;;;5051795;28;20120;-65
2021/01/29 03:05:05;;;;;;;46.85;26.60;;;128.80;2252.80;;;;;;5052762;28;20522;-66
2021/01/29 03:08:00;;;;;;;46.25;25.23;;;128.90;2252.80;;;;;;5050136;28;20540;-66
2021/01/29 03:10:50;;;;;;;117.50;54.40;;;128.80;2252.80;;;;;;5051129;28;20045;-66
2021/01/29 03:13:23;;;;;;;72.55;37.95;;;128.80;2252.80;;;;;;5052909;28;20025;-62
2021/01/29 03:16:00;;;;;;;62.15;34.58;;;128.80;2252.80;;;;;;5052691;28;20056;-66
2021/01/29 03:19:01;;;;;;;105.75;56.10;;;128.70;2252.80;;;;;;5052581;28;20064;-65
2021/01/29 03:21:44;;;;;;;167.18;84.07;;;128.70;2252.80;;;;;;4993231;28;20073;-65
2021/01/29 03:24:39;;;;;;;104.18;57.05;;;128.80;2252.80;;;;;;4993298;28;20101;-66
2021/01/29 03:27:12;;;;;;;59.60;33.30;;;128.80;2252.80;;;;;;4991721;28;20034;-66
2021/01/29 03:29:44;;;;;;;61.58;34.05;;;128.70;2252.80;;;;;;4991531;28;20408;-65
2021/01/29 03:32:14;;;;;;;66.45;36.20;;;128.70;2252.80;;;;;;4993140;28;20034;-68
2021/01/29 03:34:56;;;;;;;44.03;25.67;;;128.70;2252.80;;;;;;4993056;28;20062;-62
2021/01/29 03:37:39;;;;;;;52.03;27.70;;;128.70;2252.80;;;;;;4993100;28;20029;-64
2021/01/29 03:40:06;;;;;;;38.45;21.67;;;128.60;2252.80;;;;;;5066306;28;20028;-66
2021/01/29 03:42:43;;;;;;;32.40;19.08;;;128.70;2252.80;;;;;;5052916;28;20083;-66
2021/01/29 03:45:40;;;;;;;37.47;20.98;;;128.70;2252.80;;;;;;5072210;28;20490;-67
2021/01/29 03:48:25;;;;;;;32.55;18.73;;;128.80;2252.80;;;;;;5051624;28;20037;-65
2021/01/29 03:51:18;;;;;;;38.58;21.15;;;128.80;2252.80;;;;;;5051895;28;20069;-66
2021/01/29 03:53:58;;;;;;;58.38;30.80;;;128.80;2252.80;;;;;;4953957;29;20517;-68
2021/01/29 03:56:41;;;;;;;79.45;43.60;;;128.80;2252.80;;;;;;4952993;29;20019;-63
2021/01/29 03:59:22;;;;;;;78.20;43.58;;;128.80;2252.80;;;;;;4972798;28;20046;-65
2021/01/29 04:01:56;;;;;;;53.78;30.75;;;128.80;2252.80;;;;;;4973051;28;20039;-66
2021/01/29 04:04:35;;;;;;;45.33;26.42;;;128.80;2252.80;;;;;;4973277;28;20031;-64
2021/01/29 04:07:15;;;;;;;27.55;15.80;;;128.70;2252.80;;;;;;4955889;28;20027;-66
2021/01/29 04:10:04;;;;;;;18.63;11.70;;;128.70;2252.80;;;;;;4975975;28;20023;-65
2021/01/29 04:12:56;;;;;;;35.28;16.45;;;128.70;2252.80;;;;;;4977029;28;20101;-67
2021/01/29 04:15:29;;;;;;;33.60;14.77;;;128.80;2252.80;;;;;;4862396;29;20094;-66
2021/01/29 04:18:04;;;;;;;42.00;17.85;;;128.90;2252.80;;;;;;4860451;29;20038;-66
2021/01/29 04:20:29;;;;;;;29.70;14.15;;;153.60;2252.80;;;;;;4860309;29;20060;-64
2021/01/29 04:22:56;;;;;;;41.90;18.40;;;153.70;2252.80;;;;;;4860370;29;20116;-64
2021/01/29 04:25:32;;;;;;;30.88;14.20;;;153.70;2252.80;;;;;;4885470;29;20032;-65
2021/01/29 04:28:10;;;;;;;21.52;10.07;;;153.70;2252.80;;;;;;4897284;29;20057;-66
2021/01/29 04:30:39;;;;;;;22.50;11.15;;;153.70;2252.80;;;;;;4952474;28;20046;-65
2021/01/29 04:33:15;;;;;;;29.08;12.45;;;153.80;2252.80;;;;;;5012923;28;20498;-66
2021/01/29 04:35:41;;;;;;;17.10;8.80;;;153.80;2252.80;;;;;;5012704;28;20495;-65
2021/01/29 04:38:19;;;;;;;12.32;6.57;;;153.80;2252.80;;;;;;5012769;28;20071;-65
2021/01/29 04:40:50;;;;;;;17.50;7.93;;;153.90;2252.80;;;;;;5012717;28;20101;-66
2021/01/29 04:43:43;;;;;;;30.98;12.60;;;153.90;2252.80;;;;;;5012599;28;20093;-66
2021/01/29 04:46:32;;;;;;;17.02;8.48;;;154.00;2252.80;;;;;;5012205;28;20049;-64
2021/01/29 04:49:10;;;;;;;28.08;11.52;;;154.00;2252.80;;;;;;5012521;28;20076;-65
2021/01/29 04:52:12;;;;;;;31.05;11.85;;;154.00;2252.80;;;;;;5029410;27;20039;-66
2021/01/29 04:54:49;;;;;;;25.45;10.98;;;154.00;2252.80;;;;;;5135321;27;20030;-66
2021/01/29 04:57:20;;;;;;;30.48;12.25;;;154.00;2252.80;;;;;;5135483;27;20483;-67
2021/01/29 05:00:19;;;;;;;55.63;21.40;;;154.00;2252.80;;;;;;5135159;27;20051;-64
2021/01/29 05:02:48;;;;;;;15.10;8.35;;;154.10;2252.80;;;;;;5135090;27;20472;-65
2021/01/29 05:05:51;;;;;;;164.70;70.40;;;154.10;2252.80;;;;;;5135153;27;20115;-65
2021/01/29 05:08:37;;;;;;;68.05;28.77;;;154.20;2252.80;;;;;;5031667;28;20104;-65
2021/01/29 05:11:21;;;;;;;316.83;124.57;;;154.20;2252.80;;;;;;5031590;28;20036;-65
2021/01/29 05:14:11;;;;;;;148.73;59.23;;;154.30;2252.80;;;;;;5031805;28;20091;-63
2021/01/29 05:17:12;;;;;;;166.85;52.13;;;154.30;2252.80;;;;;;5031828;28;20502;-64
2021/01/29 05:20:15;;;;;;;15.40;8.73;;;154.30;2252.80;;;;;;5031031;28;20053;-65
2021/01/29 05:23:04;;;;;;;42.55;21.73;;;154.40;2252.80;;;;;;5031499;28;20215;-64
2021/01/29 05:25:47;;;;;;;41.05;21.88;;;154.40;2252.80;;;;;;5031444;28;20029;-65
2021/01/29 05:28:43;;;;;;;22.80;13.73;;;154.50;2252.80;;;;;;5030885;28;20129;-64
2021/01/29 05:31:36;;;;;;;26.05;16.40;;;154.50;2252.80;;;;;;5031005;28;20041;-65
2021/01/29 05:34:46;;;;;;;16.92;9.93;;;179.20;2252.80;;;;;;5031354;28;20033;-65
2021/01/29 05:37:45;;;;;;;10.68;6.93;;;179.20;2252.80;;;;;;4972816;28;20105;-64
2021/01/29 05:40:11;;;;;;;12.30;9.32;;;179.30;2252.80;;;;;;4972655;28;20097;-65
2021/01/29 05:42:54;;;;;;;11.32;7.68;;;179.30;2252.80;;;;;;5035450;28;20518;-65
2021/01/29 05:45:38;;;;;;;7.43;4.70;;;179.30;2252.80;;;;;;5071761;28;20539;-64
2021/01/29 05:48:20;;;;;;;6.95;4.40;;;179.30;2252.80;;;;;;5071419;28;20063;-65
2021/01/29 05:51:24;;;;;;;6.40;4.43;;;179.30;2252.80;;;;;;5071325;28;20021;-64
2021/01/29 05:53:50;;;;;;;;;;;179.30;2252.80;;;;;;5031926;28;20033;-63
2021/01/29 05:56:44;;;;;;;6.22;3.75;;;179.30;2252.80;;;;;;5031505;28;19905;-65
2021/01/29 05:59:32;;;;;;;6.53;4.05;;;179.30;2252.80;;;;;;5031444;28;20360;-62
2021/01/29 06:02:16;;;;;;;7.10;4.47;;;179.30;2252.80;;;;;;5016240;28;20408;-64
2021/01/29 06:04:44;;;;;;;7.22;4.43;;;179.40;2252.80;;;;;;5031194;28;20120;-64
2021/01/29 06:07:34;;;;;;;6.68;4.03;;;179.40;2252.80;;;;;;5031449;28;20435;-65
2021/01/29 06:10:05;;;;;;;6.93;3.90;;;179.50;2252.80;;;;;;5031470;28;20037;-64
2021/01/29 06:12:36;;;;;;;7.38;4.85;;;179.50;2252.80;;;;;;5031236;28;20049;-65
2021/01/29 06:15:23;;;;;;;14.68;9.85;;;179.50;2252.80;;;;;;5049658;28;20037;-65
2021/01/29 06:18:26;;;;;;;10.23;7.13;;;179.50;2252.80;;;;;;5051061;28;20112;-64
2021/01/29 06:21:20;;;;;;;9.90;6.30;;;179.50;2252.80;;;;;;5051257;28;20522;-64
2021/01/29 06:24:13;;;;;;;111.57;47.80;;;179.50;2252.80;;;;;;5051360;28;20044;-62
2021/01/29 06:27:02;;;;;;;31.92;15.98;;;179.50;2252.80;;;;;;5051124;28;20029;-64
2021/01/29 06:29:47;;;;;;;13.93;8.98;;;179.50;2252.80;;;;;;5051388;28;20079;-64
2021/01/29 06:32:46;;;;;;;19.13;11.77;;;179.50;2252.80;;;;;;5138254;27;20019;-62
2021/01/29 06:35:21;;;;;;;26.70;18.08;;;179.50;2252.80;;;;;;5137988;27;20062;-64
2021/01/29 06:38:10;;;;;;;18.38;12.27;;;179.50;2252.80;;;;;;5138029;27;20019;-63
2021/01/29 06:40:58;;;;;;;13.98;8.70;;;179.50;2252.80;;;;;;5137802;27;20031;-61
2021/01/29 06:43:36;;;;;;;14.10;8.50;;;179.60;2252.80;;;;;;5138118;27;20061;-63
2021/01/29 06:46:30;;;;;;;51.35;29.17;;;179.60;2227.20;;;;;;5137902;27;20120;-66
2021/01/29 06:49:14;;;;;;;107.95;62.45;;;179.60;2227.20;;;;;;5137607;27;20110;-63
2021/01/29 06:51:43;;;;;;;249.02;118.75;;;179.60;2252.80;;;;;;5137954;27;20042;-64
2021/01/29 06:54:56;;;;;;;188.90;89.32;;;179.60;2252.80;;;;;;5137504;27;20491;-65
2021/01/29 06:57:43;;;;;;;677.25;333.48;;;179.50;2252.80;;;;;;5034339;28;20029;-65
2021/01/29 07:00:30;;;;;;;492.40;247.07;;;179.50;2252.80;;;;;;5034529;28;20033;-66
2021/01/29 07:03:04;;;;;;;353.88;164.93;;;179.60;2252.80;;;;;;5034308;28;20048;-66
2021/01/29 07:06:16;;;;;;;344.30;155.63;;;179.60;2252.80;;;;;;5034201;28;20033;-63
2021/01/29 07:08:51;;;;;;;190.57;93.45;;;179.70;2227.20;;;;;;4956063;29;20430;-65
2021/01/29 07:11:25;;;;;;;;;;;179.90;2227.20;;;;;;4956401;29;20054;-65
2021/01/29 07:14:28;;;;;;;153.27;73.50;;;179.90;2201.60;;;;;;4956154;29;19906;-64
2021/01/29 07:17:39;;;;;;;220.23;107.93;;;180.10;2176.00;;;;;;4955809;29;20031;-65
2021/01/29 07:20:32;;;;;;;76.18;42.20;;;180.10;2176.00;;;;;;4939486;29;20036;-66
2021/01/29 07:23:35;;;;;;;78.32;41.63;;;204.80;2176.00;;;;;;4955819;29;20039;-66
2021/01/29 07:26:07;;;;;;;165.25;81.68;;;204.80;2176.00;;;;;;4898949;29;20040;-66
2021/01/29 07:28:51;;;;;;;172.02;89.82;;;204.80;2176.00;;;;;;4898591;29;20058;-66
2021/01/29 07:31:40;;;;;;;119.90;65.00;;;204.90;2176.00;;;;;;4898793;29;20088;-64
2021/01/29 07:34:45;;;;;;;171.80;88.80;;;204.90;2176.00;;;;;;4946935;28;20493;-65
2021/01/29 07:37:29;;;;;;;127.60;68.22;;;205.00;2176.00;;;;;;4974799;28;20077;-62
2021/01/29 07:40:36;;;;;;;101.88;55.45;;;205.10;2176.00;;;;;;4975030;28;20037;-65
2021/01/29 07:43:17;;;;;;;84.32;45.42;;;205.00;2176.00;;;;;;5030517;28;20041;-65
2021/01/29 07:46:16;;;;;;;90.05;51.15;;;205.00;2150.40;;;;;;5053528;28;20025;-65
2021/01/29 07:49:09;;;;;;;54.58;31.63;;;204.80;2176.00;;;;;;5053655;28;20032;-66
2021/01/29 07:51:38;;;;;;;64.38;35.22;;;204.80;2176.00;;;;;;5053321;28;20074;-65
2021/01/29 07:54:21;;;;;;;83.72;43.13;;;204.80;2201.60;;;;;;5053437;28;20045;-66
2021/01/29 07:57:05;;;;;;;59.53;32.20;;;204.80;2176.00;;;;;;5053418;28;20119;-63
2021/01/29 08:00:08;;;;;;;64.55;35.75;;;180.10;2201.60;;;;;;5053242;28;20480;-64
2021/01/29 08:02:48;;;;;;;104.00;51.88;;;180.00;2201.60;;;;;;5104097;27;20039;-65
2021/01/29 08:05:27;;;;;;;145.07;60.55;;;180.00;2201.60;;;;;;5136192;27;20107;-66
2021/01/29 08:08:00;;;;;;;292.45;120.70;;;179.90;2201.60;;;;;;5136496;27;20027;-65
2021/01/29 08:10:30;;;;;;;124.40;56.53;;;179.90;2227.20;;;;;;5136273;27;20027;-65
2021/01/29 08:13:28;;;;;;;130.50;57.45;;;179.90;2227.20;;;;;;5135953;27;20027;-66
2021/01/29 08:16:11;;;;;;;190.55;72.60;;;180.00;2227.20;;;;;;5032843;28;20410;-67
2021/01/29 08:18:55;;;;;;;203.05;73.93;;;180.10;2201.60;;;;;;5015956;28;20033;-67
2021/01/29 08:21:49;;;;;;;155.40;54.90;;;204.90;2201.60;;;;;;5032787;28;20072;-66
2021/01/29 08:24:48;;;;;;;211.90;75.20;;;205.10;2176.00;;;;;;5032766;28;20029;-62
2021/01/29 08:27:28;;;;;;;239.10;85.40;;;205.40;2124.80;;;;;;5032685;28;20029;-64
2021/01/29 08:30:27;;;;;;;199.63;74.50;;;205.60;2099.20;;;;;;5032529;28;20137;-65
2021/01/29 08:33:20;;;;;;;173.25;66.60;;;230.50;2048.00;;;;;;4954561;29;20118;-66
2021/01/29 08:36:27;;;;;;;268.92;114.85;;;231.00;1971.20;;;;;;4954492;29;20031;-66
2021/01/29 08:39:05;;;;;;;246.88;109.43;;;256.20;1894.40;;;;;;4953902;29;20035;-65
2021/01/29 08:42:01;;;;;;;177.93;59.88;;;256.80;1817.60;;;;;;4954342;29;20114;-65
2021/01/29 08:44:53;;;;;;;126.57;54.70;;;256.70;1843.20;;;;;;4954228;29;20035;-67
2021/01/29 08:47:22;;;;;;;219.48;76.47;;;256.50;1868.80;;;;;;4897181;29;20048;-66
2021/01/29 08:50:24;;;;;;;88.90;43.35;;;256.30;1894.40;;;;;;4897428;29;20039;-66
2021/01/29 08:52:50;;;;;;;58.53;30.65;;;256.10;1920.00;;;;;;4953628;28;20042;-65
2021/01/29 08:55:25;;;;;;;58.95;32.72;;;231.30;1945.60;;;;;;4992795;28;20030;-64
2021/01/29 08:58:20;;;;;;;81.13;41.78;;;231.20;1971.20;;;;;;4992903;28;20034;-65
2021/01/29 09:00:46;;;;;;;56.00;30.00;;;231.30;1971.20;;;;;;4953908;28;20059;-64
2021/01/29 09:03:32;;;;;;;166.57;88.43;;;256.10;1920.00;;;;;;4953727;29;20036;-66
2021/01/29 09:06:26;;;;;;;42.22;22.05;;;256.80;1843.20;;;;;;4953960;29;20043;-67
2021/01/29 09:09:02;;;;;;;87.35;43.30;;;282.10;1766.40;;;;;;4953052;28;20043;-67
2021/01/29 09:11:34;;;;;;;61.67;33.40;;;307.30;1740.80;;;;;;4992675;28;20038;-68
2021/01/29 09:14:06;;;;;;;57.92;29.08;;;308.10;1664.00;;;;;;4992523;28;20075;-68
2021/01/29 09:16:34;;;;;;;58.55;30.35;;;333.20;1612.80;;;;;;4992414;28;20030;-67
2021/01/29 09:19:18;;;;;;;22.92;14.70;;;358.90;1484.80;;;;;;4992471;28;20049;-67
2021/01/29 09:22:12;;;;;;;39.60;23.60;;;384.20;1356.80;;;;;;4991944;28;20038;-66
2021/01/29 09:24:44;;;;;;;;;;;409.70;1331.20;;;;;;5019583;28;20116;-66
2021/01/29 09:27:34;;;;;;;32.65;20.05;;;410.50;1228.80;;;;;;5029882;28;20219;-67
2021/01/29 09:30:07;;;;;;;21.10;15.05;;;410.40;1228.80;;;;;;5029002;28;20107;-67
2021/01/29 09:32:45;;;;;;;26.85;18.92;;;409.60;1305.60;;;;;;5014320;28;20554;-68
2021/01/29 09:35:40;;;;;;;25.02;16.75;;;384.80;1280.00;;;;;;5027943;28;20041;-67
2021/01/29 09:38:11;;;;;;;29.75;19.30;;;384.30;1331.20;;;;;;5118888;27;20050;-67
2021/01/29 09:41:00;;;;;;;38.15;21.15;;;409.60;1305.60;;;;;;5133489;27;20031;-68
2021/01/29 09:43:33;;;;;;;30.98;18.38;;;435.30;1203.20;;;;;;5132749;27;20019;-68
2021/01/29 09:45:59;;;;;;;32.47;21.75;;;461.00;1126.40;;;;;;5131819;28;20068;-68
2021/01/29 09:48:26;;;;;;;23.42;18.23;;;461.60;1075.20;;;;;;5133287;28;20353;-68
2021/01/29 09:51:26;;;;;;;23.27;17.65;;;487.30;972.80;;;;;;5132938;28;20058;-68
2021/01/29 09:54:06;;;;;;;42.35;30.80;;;487.10;972.80;;;;;;5113858;28;20118;-69
2021/01/29 09:56:40;;;;;;;23.48;18.05;;;486.70;998.40;;;;;;5133317;28;20095;-68
2021/01/29 09:59:17;;;;;;;31.75;24.45;;;461.70;1024.00;;;;;;5133065;28;20520;-66
2021/01/29 10:02:00;;;;;;;87.93;64.28;;;461.00;1100.80;;;;;;5119276;28;20031;-68
2021/01/29 10:04:55;;;;;;;29.85;19.52;;;435.70;1126.40;;;;;;5131603;27;20034;-67
2021/01/29 10:07:25;;;;;;;32.72;23.90;;;436.10;1100.80;;;;;;5059801;28;20043;-64
2021/01/29 10:10:03;;;;;;;27.92;21.05;;;461.20;1075.20;;;;;;5063735;28;20071;-67
2021/01/29 10:12:32;;;;;;;34.42;26.60;;;486.60;1024.00;;;;;;5064472;28;20033;-64
2021/01/29 10:15:04;;;;;;;40.05;28.83;;;487.20;998.40;;;;;;5062513;28;20021;-69
2021/01/29 10:17:41;;;;;;;18.33;14.80;;;512.80;896.00;;;;;;5061595;28;20124;-69
2021/01/29 10:20:12;;;;;;;15.45;11.98;;;538.00;844.80;;;;;;5062922;28;20043;-67
2021/01/29 10:22:57;;;;;;;18.30;13.35;;;512.70;896.00;;;;;;5060800;28;20033;-72
2021/01/29 10:25:44;;;;;;;14.65;11.07;;;487.30;921.60;;;;;;5048058;28;20040;-71
2021/01/29 10:28:19;;;;;;;25.40;17.52;;;486.50;947.20;;;;;;5062752;28;20045;-67
2021/01/29 10:31:00;;;;;;;23.45;17.40;;;461.70;972.80;;;;;;5063834;28;20029;-68
2021/01/29 10:33:32;;;;;;;22.08;16.13;;;461.70;998.40;;;;;;5044404;28;20033;-69
2021/01/29 10:36:08;;;;;;;23.38;15.38;;;486.60;972.80;;;;;;5055333;28;20378;-67
2021/01/29 10:38:39;;;;;;;30.15;20.42;;;461.70;972.80;;;;;;5053691;28;20086;-67
2021/01/29 10:41:36;;;;;;;46.30;30.55;;;461.00;1049.60;;;;;;5069056;28;20036;-67
2021/01/29 10:44:22;;;;;;;29.45;22.25;;;435.90;1075.20;;;;;;5092580;27;20154;-66
2021/01/29 10:47:12;;;;;;;23.10;16.83;;;410.40;1126.40;;;;;;5115408;27;20042;-67
2021/01/29 10:49:57;;;;;;;100.90;57.70;;;384.80;1177.60;;;;;;5135014;27;20011;-69
2021/01/29 10:52:43;;;;;;;35.38;21.42;;;384.20;1254.40;;;;;;5133356;27;20019;-67
2021/01/29 10:55:39;;;;;;;55.42;31.40;;;359.20;1280.00;;;;;;5133907;27;20035;-66
2021/01/29 10:58:50;;;;;;;125.35;63.97;;;358.90;1331.20;;;;;;5134751;27;20011;-64
2021/01/29 11:01:28;;;;;;;66.22;37.17;;;358.60;1331.20;;;;;;5134359;27;20035;-66
2021/01/29 11:04:21;;;;;;;97.65;54.67;;;358.60;1356.80;;;;;;5115692;27;20027;-66
2021/01/29 11:06:54;;;;;;;43.20;24.27;;;358.40;1408.00;;;;;;5133466;27;20098;-64
2021/01/29 11:09:42;;;;;;;34.95;22.65;;;333.70;1459.20;;;;;;5135758;27;20015;-66
2021/01/29 11:12:22;;;;;;;52.95;33.55;;;333.40;1484.80;;;;;;5126305;27;20112;-66
2021/01/29 11:14:56;;;;;;;36.10;21.35;;;333.20;1510.40;;;;;;5135112;27;20026;-65
2021/01/29 11:17:43;;;;;;;74.30;45.22;;;332.90;1561.60;;;;;;5134606;27;20050;-65
2021/01/29 11:20:34;;;;;;;75.10;37.25;;;308.10;1561.60;;;;;;5132830;27;20023;-65
2021/01/29 11:23:29;;;;;;;78.10;44.28;;;308.00;1587.20;;;;;;5115983;27;20027;-64
2021/01/29 11:26:14;;;;;;;91.88;52.88;;;307.80;1612.80;;;;;;5132227;27;20015;-64
2021/01/29 11:28:53;;;;;;;110.70;57.65;;;307.70;1587.20;;;;;;5131853;27;20081;-64
2021/01/29 11:31:41;;;;;;;49.33;29.60;;;307.70;1612.80;;;;;;5130041;27;20027;-64
2021/01/29 11:34:32;;;;;;;75.28;42.65;;;307.50;1612.80;;;;;;5114831;27;20036;-65
2021/01/29 11:37:16;;;;;;;36.88;18.30;;;307.50;1612.80;;;;;;5134066;27;20592;-65
2021/01/29 11:39:55;;;;;;;43.03;24.67;;;307.40;1587.20;;;;;;5116326;27;20113;-65
2021/01/29 11:42:26;;;;;;;18.83;12.23;;;307.30;1612.80;;;;;;5135037;27;20050;-64
2021/01/29 11:45:07;;;;;;;33.40;18.65;;;307.20;1612.80;;;;;;5135194;27;20015;-65
2021/01/29 11:47:57;;;;;;;51.53;30.30;;;307.20;1612.80;;;;;;5135957;27;20020;-64
2021/01/29 11:50:49;;;;;;;45.22;25.15;;;307.30;1612.80;;;;;;5134545;27;20427;-65
2021/01/29 11:53:24;;;;;;;65.47;36.47;;;307.20;1612.80;;;;;;5134164;27;20019;-65
2021/01/29 11:55:58;;;;;;;29.48;17.65;;;282.50;1612.80;;;;;;5135541;27;20106;-64
2021/01/29 11:58:44;;;;;;;43.33;24.48;;;307.20;1638.40;;;;;;5127103;27;20384;-62
2021/01/29 12:01:19;;;;;;;82.70;48.05;;;307.20;1638.40;;;;;;5134751;27;20578;-62
2021/01/29 12:04:05;;;;;;;49.72;31.75;;;282.50;1612.80;;;;;;5134056;27;20107;-65
2021/01/29 12:06:35;;;;;;;53.38;30.85;;;307.20;1638.40;;;;;;5132269;27;20026;-63
2021/01/29 12:09:18;;;;;;;129.60;63.78;;;307.20;1664.00;;;;;;5135812;27;20422;-62
2021/01/29 12:11:43;;;;;;;130.35;66.47;;;307.20;1638.40;;;;;;5135171;27;20106;-62
2021/01/29 12:14:41;;;;;;;55.70;29.55;;;307.20;1664.00;;;;;;5135971;27;20046;-63
2021/01/29 12:17:08;;;;;;;99.18;48.67;;;282.40;1612.80;;;;;;5135734;27;20094;-63
2021/01/29 12:19:45;;;;;;;253.15;120.70;;;282.50;1638.40;;;;;;5135557;27;20072;-64
2021/01/29 12:22:23;;;;;;;178.75;83.38;;;282.40;1638.40;;;;;;5135495;27;20035;-62
2021/01/29 12:25:15;;;;;;;186.82;86.63;;;282.50;1612.80;;;;;;5135497;27;20037;-62
2021/01/29 12:27:43;;;;;;;104.22;55.10;;;282.50;1612.80;;;;;;5123383;27;20035;-64
2021/01/29 12:30:19;;;;;;;158.02;68.63;;;282.50;1612.80;;;;;;5135337;27;20061;-65
2021/01/29 12:32:51;;;;;;;43.97;26.95;;;282.50;1587.20;;;;;;5134301;27;20057;-64
2021/01/29 12:35:23;;;;;;;31.10;20.42;;;282.40;1612.80;;;;;;5135257;27;20039;-63
2021/01/29 12:38:19;;;;;;;31.38;19.27;;;282.40;1587.20;;;;;;5125526;27;20118;-63
2021/01/29 12:40:55;;;;;;;14.77;10.10;;;282.40;1587.20;;;;;;5132128;27;20023;-62
2021/01/29 12:43:31;;;;;;;31.90;19.50;;;282.20;1587.20;;;;;;5132413;27;20031;-62
2021/01/29 12:46:09;;;;;;;24.17;16.00;;;282.10;1587.20;;;;;;5133317;27;20027;-62
2021/01/29 12:48:50;;;;;;;48.03;28.55;;;282.20;1587.20;;;;;;5111582;28;20077;-62
2021/01/29 12:51:57;;;;;;;28.05;17.63;;;282.10;1587.20;;;;;;5112303;28;20104;-65
2021/01/29 12:54:34;;;;;;;38.33;25.25;;;282.10;1587.20;;;;;;5112215;28;20042;-65
2021/01/29 12:57:19;;;;;;;29.70;16.98;;;281.90;1561.60;;;;;;5112312;28;20066;-65
2021/01/29 13:00:26;;;;;;;35.70;21.65;;;281.90;1561.60;;;;;;5112628;28;20036;-65
2021/01/29 13:03:16;;;;;;;37.08;21.48;;;281.90;1587.20;;;;;;5070312;28;20524;-65
2021/01/29 13:06:15;;;;;;;29.65;18.08;;;281.90;1561.60;;;;;;5071501;28;20040;-65